Time;durP1;ratioP1;P1;durP2;ratioP2;P2;SDS_P1;SDS_P2;PMS_P1;PMS_P2;Temp;Humidity;BMP_temperature;BMP_pressure;BME280_temperature;BME280_humidity;BME280_pressure;Samples;Min_cycle;Max_cycle;Signal;HPM_P1;HPM_P2
2023/01/22 00:01:33;;;;;;;22.60;15.02;;;0.10;99.90;;;;;;7362290;19;20344;-65
2023/01/22 00:03:59;;;;;;;26.25;17.00;;;0.00;99.90;;;;;;7364033;19;20010;-64
2023/01/22 00:06:30;;;;;;;19.65;15.77;;;0.10;99.90;;;;;;7365747;19;20531;-65
2023/01/22 00:09:02;;;;;;;23.88;17.33;;;0.00;99.90;;;;;;7373131;19;20022;-65
2023/01/22 00:11:29;;;;;;;22.50;17.17;;;0.00;99.90;;;;;;7371415;19;20022;-65
2023/01/22 00:13:55;;;;;;;22.23;15.20;;;0.00;99.90;;;;;;7372302;19;20026;-65
2023/01/22 00:16:21;;;;;;;22.52;14.82;;;0.00;99.90;;;;;;7368448;19;20022;-64
2023/01/22 00:18:48;;;;;;;23.73;16.45;;;0.00;99.90;;;;;;7368558;19;20900;-65
2023/01/22 00:21:14;;;;;;;22.92;16.13;;;0.00;99.90;;;;;;7370184;19;20022;-65
2023/01/22 00:23:40;;;;;;;26.30;17.50;;;0.00;99.90;;;;;;7364530;19;20033;-64
2023/01/22 00:26:10;;;;;;;27.67;17.40;;;0.00;99.90;;;;;;7364121;19;20028;-65
2023/01/22 00:28:40;;;;;;;27.48;17.27;;;0.00;99.90;;;;;;7367299;19;20348;-64
2023/01/22 00:31:08;;;;;;;26.38;18.05;;;0.00;99.90;;;;;;7364965;19;20070;-65
2023/01/22 00:33:37;;;;;;;26.38;17.55;;;-0.10;99.90;;;;;;7363063;19;20025;-65
2023/01/22 00:36:12;;;;;;;29.08;19.65;;;0.00;99.90;;;;;;7363475;19;20023;-64
2023/01/22 00:38:38;;;;;;;28.70;18.85;;;0.00;99.90;;;;;;7365132;19;20037;-64
2023/01/22 00:41:08;;;;;;;26.23;17.40;;;-0.10;99.90;;;;;;7365846;19;20411;-64
2023/01/22 00:43:37;;;;;;;29.42;20.90;;;-0.10;99.90;;;;;;7361051;19;20036;-65
2023/01/22 00:46:08;;;;;;;30.40;19.80;;;0.00;99.90;;;;;;7364725;19;20026;-70
2023/01/22 00:48:35;;;;;;;28.23;19.13;;;-0.10;99.90;;;;;;7366951;19;20019;-70
2023/01/22 00:51:01;;;;;;;33.00;20.48;;;-0.10;99.90;;;;;;7363282;19;20598;-64
2023/01/22 00:53:28;;;;;;;30.20;18.75;;;-0.10;99.90;;;;;;7363952;19;20460;-70
2023/01/22 00:55:57;;;;;;;35.83;21.38;;;-0.20;99.90;;;;;;7363748;19;20360;-70
2023/01/22 00:58:24;;;;;;;34.83;21.77;;;-0.10;99.90;;;;;;7365718;19;20307;-70
2023/01/22 01:00:51;;;;;;;35.35;21.17;;;-0.10;99.90;;;;;;7363111;19;20631;-70
2023/01/22 01:03:27;;;;;;;30.85;20.75;;;-0.20;99.90;;;;;;7360945;19;20497;-70
2023/01/22 01:05:54;;;;;;;32.90;21.45;;;-0.20;99.90;;;;;;7364059;19;20019;-65
2023/01/22 01:08:21;;;;;;;37.42;20.90;;;-0.20;99.90;;;;;;7363162;19;20029;-67
2023/01/22 01:10:48;;;;;;;35.72;21.55;;;-0.20;99.90;;;;;;7363296;19;20481;-71
2023/01/22 01:13:17;;;;;;;34.03;20.80;;;-0.30;99.90;;;;;;7361817;19;20584;-65
2023/01/22 01:15:44;;;;;;;33.03;20.40;;;-0.30;99.90;;;;;;7363379;19;20454;-64
2023/01/22 01:18:16;;;;;;;34.17;21.77;;;-0.40;99.90;;;;;;7363974;19;20023;-70
2023/01/22 01:20:42;;;;;;;32.38;21.65;;;-0.40;99.90;;;;;;7367534;19;20488;-71
2023/01/22 01:23:08;;;;;;;36.05;20.50;;;-0.40;99.90;;;;;;7363042;19;20065;-70
2023/01/22 01:25:40;;;;;;;32.30;20.65;;;-0.40;99.90;;;;;;7362581;19;20060;-70
2023/01/22 01:28:06;;;;;;;32.55;20.98;;;-0.50;99.90;;;;;;7365958;19;20349;-64
2023/01/22 01:30:33;;;;;;;36.75;21.98;;;-0.50;99.90;;;;;;7366040;19;20025;-71
2023/01/22 01:33:00;;;;;;;33.40;20.50;;;-0.50;99.90;;;;;;7362703;19;20014;-64
2023/01/22 01:35:27;;;;;;;35.95;21.42;;;-0.50;99.90;;;;;;7364763;19;20608;-64
2023/01/22 01:37:53;;;;;;;33.95;21.63;;;-0.60;99.90;;;;;;7363454;19;20464;-71
2023/01/22 01:40:19;;;;;;;31.73;20.60;;;-0.60;99.90;;;;;;7367456;19;20010;-70
2023/01/22 01:42:46;;;;;;;36.10;21.38;;;-0.60;99.90;;;;;;7366437;19;20022;-70
2023/01/22 01:45:22;;;;;;;32.90;22.70;;;-0.60;99.90;;;;;;7365701;19;20018;-70
2023/01/22 01:47:57;;;;;;;37.72;23.40;;;-0.60;99.90;;;;;;7362528;19;20082;-71
2023/01/22 01:50:26;;;;;;;36.30;22.05;;;-0.70;99.90;;;;;;7367264;19;20028;-70
2023/01/22 01:52:52;;;;;;;35.22;22.02;;;-0.70;99.90;;;;;;7365671;19;20022;-71
2023/01/22 01:55:26;;;;;;;35.05;22.75;;;-0.70;99.90;;;;;;7363018;19;20081;-70
2023/01/22 01:58:00;;;;;;;36.92;21.48;;;-0.80;99.90;;;;;;7366707;19;20502;-71
2023/01/22 02:00:31;;;;;;;36.90;21.98;;;-0.80;99.90;;;;;;7366109;19;20023;-70
2023/01/22 02:02:58;;;;;;;37.58;22.10;;;-0.80;99.90;;;;;;7366017;19;20019;-70
2023/01/22 02:05:36;;;;;;;38.95;23.05;;;-0.80;99.90;;;;;;7366405;19;20391;-70
2023/01/22 02:08:04;;;;;;;36.30;22.83;;;-0.80;99.90;;;;;;7364066;19;20018;-71
2023/01/22 02:10:43;;;;;;;40.28;22.17;;;-0.70;99.90;;;;;;7364842;19;20358;-71
2023/01/22 02:13:18;;;;;;;37.72;22.75;;;-0.60;99.90;;;;;;7366465;19;20342;-70
2023/01/22 02:15:46;;;;;;;37.97;22.92;;;-0.50;99.90;;;;;;7361106;19;20744;-70
2023/01/22 02:18:13;;;;;;;36.95;22.52;;;-0.40;99.90;;;;;;7358142;19;20053;-70
2023/01/22 02:20:59;;;;;;;33.13;20.98;;;-0.30;99.90;;;;;;7366321;19;20393;-71
2023/01/22 02:23:28;;;;;;;32.75;19.02;;;-0.30;99.90;;;;;;7366836;19;20097;-71
2023/01/22 02:25:57;;;;;;;28.90;19.63;;;-0.20;99.90;;;;;;7364006;19;20118;-70
2023/01/22 02:28:23;;;;;;;33.80;20.05;;;-0.10;99.90;;;;;;7367619;19;20015;-70
2023/01/22 02:30:53;;;;;;;30.15;19.75;;;0.00;99.90;;;;;;7367831;19;20014;-70
2023/01/22 02:33:20;;;;;;;25.85;17.83;;;0.00;99.90;;;;;;7377672;19;20023;-70
2023/01/22 02:35:46;;;;;;;28.02;18.83;;;0.10;99.90;;;;;;7373659;19;20384;-71
2023/01/22 02:38:15;;;;;;;23.35;16.75;;;0.10;99.90;;;;;;7370638;19;20024;-71
2023/01/22 02:40:47;;;;;;;22.27;15.27;;;0.20;99.90;;;;;;7370360;19;20018;-70
2023/01/22 02:43:16;;;;;;;20.83;14.90;;;0.30;99.90;;;;;;7373864;19;20114;-70
2023/01/22 02:45:43;;;;;;;23.60;15.70;;;0.40;99.90;;;;;;7369885;19;20586;-71
2023/01/22 02:48:10;;;;;;;21.15;13.43;;;0.40;99.90;;;;;;7370092;19;20025;-70
2023/01/22 02:50:45;;;;;;;19.10;12.93;;;0.50;99.90;;;;;;7368312;19;20489;-70
2023/01/22 02:53:12;;;;;;;22.40;14.25;;;0.50;99.90;;;;;;7372433;19;20530;-70
2023/01/22 02:55:39;;;;;;;19.70;14.00;;;0.60;99.90;;;;;;7369546;19;20481;-70
2023/01/22 02:58:05;;;;;;;19.50;13.38;;;0.60;99.90;;;;;;7372274;19;20021;-70
2023/01/22 03:00:32;;;;;;;18.83;13.25;;;0.80;99.90;;;;;;7370959;19;20023;-71
2023/01/22 03:02:59;;;;;;;21.38;12.98;;;0.70;99.90;;;;;;7368630;19;20019;-71
2023/01/22 03:05:26;;;;;;;21.38;13.68;;;0.70;99.90;;;;;;7371306;19;20018;-70
2023/01/22 03:07:52;;;;;;;19.95;14.73;;;0.70;99.90;;;;;;7367763;19;20023;-70
2023/01/22 03:10:19;;;;;;;21.55;14.23;;;0.70;99.90;;;;;;7371866;19;20075;-71
2023/01/22 03:21:19;;;;;;;18.88;13.35;;;0.90;99.90;;;;;;7372493;19;20033;-65
2023/01/22 03:23:47;;;;;;;15.40;12.50;;;0.80;99.90;;;;;;7368232;19;20765;-64
2023/01/22 03:26:16;;;;;;;17.63;12.05;;;0.80;99.90;;;;;;7371901;19;20043;-70
2023/01/22 03:28:44;;;;;;;20.02;12.48;;;0.90;99.90;;;;;;7371955;19;20017;-64
2023/01/22 03:31:11;;;;;;;16.92;11.02;;;0.90;99.90;;;;;;7371657;19;20075;-64
2023/01/22 03:33:39;;;;;;;13.25;9.70;;;0.90;99.90;;;;;;7369298;19;20014;-64
2023/01/22 03:36:09;;;;;;;11.65;9.52;;;0.90;99.90;;;;;;7371253;19;20025;-64
2023/01/22 03:38:38;;;;;;;15.73;9.98;;;0.90;99.90;;;;;;7370944;19;20391;-65
2023/01/22 03:41:14;;;;;;;12.48;9.45;;;0.90;99.90;;;;;;7368253;19;20474;-64
2023/01/22 03:43:43;;;;;;;13.85;9.88;;;0.90;99.90;;;;;;7371147;19;20025;-70
2023/01/22 03:46:22;;;;;;;12.35;9.93;;;0.90;99.90;;;;;;7366435;19;20446;-65
2023/01/22 03:48:53;;;;;;;15.98;11.18;;;0.90;99.90;;;;;;7367303;19;20037;-64
2023/01/22 03:51:20;;;;;;;15.70;10.02;;;0.90;99.90;;;;;;7371277;19;20018;-64
2023/01/22 03:53:47;;;;;;;12.77;9.70;;;0.90;99.90;;;;;;7367379;19;20661;-66
2023/01/22 03:56:18;;;;;;;13.20;10.05;;;0.90;99.90;;;;;;7367480;19;20015;-70
2023/01/22 03:58:45;;;;;;;13.75;10.40;;;0.90;99.90;;;;;;7366989;19;20374;-70
2023/01/22 04:01:18;;;;;;;13.55;10.45;;;0.90;99.90;;;;;;7371515;19;20018;-70
2023/01/22 04:03:44;;;;;;;15.75;10.27;;;0.90;99.90;;;;;;7365661;19;20123;-70
2023/01/22 04:06:16;;;;;;;14.85;10.73;;;0.90;99.90;;;;;;7370744;19;20014;-70
2023/01/22 04:08:43;;;;;;;15.80;11.52;;;0.90;99.90;;;;;;7370336;19;20748;-70
2023/01/22 04:11:11;;;;;;;13.52;9.75;;;0.90;99.90;;;;;;7370007;19;20041;-70
2023/01/22 04:13:39;;;;;;;12.25;9.55;;;0.90;99.90;;;;;;7369553;19;20018;-70
2023/01/22 04:16:15;;;;;;;12.13;9.73;;;0.90;99.90;;;;;;7371010;19;20035;-64
2023/01/22 04:19:01;;;;;;;11.43;8.57;;;0.90;99.90;;;;;;7368271;19;20017;-70
2023/01/22 04:21:53;;;;;;;12.13;8.73;;;0.90;99.90;;;;;;7366720;19;20610;-70
2023/01/22 04:24:22;;;;;;;11.55;8.82;;;0.90;99.90;;;;;;7366277;19;20022;-70
2023/01/22 04:26:48;;;;;;;12.50;9.60;;;0.90;99.90;;;;;;7365606;19;20022;-70
2023/01/22 04:29:18;;;;;;;12.55;9.30;;;0.90;99.90;;;;;;7371326;19;20014;-70
2023/01/22 04:31:45;;;;;;;9.13;8.00;;;0.90;99.90;;;;;;7366668;19;20081;-70
2023/01/22 04:34:46;;;;;;;11.80;8.23;;;0.90;99.90;;;;;;7369581;19;20560;-70
2023/01/22 04:37:28;;;;;;;11.75;8.50;;;1.00;99.90;;;;;;7370379;19;20010;-65
2023/01/22 04:39:54;;;;;;;15.07;8.88;;;1.00;99.90;;;;;;7367362;19;20019;-70
2023/01/22 04:42:22;;;;;;;11.63;8.18;;;1.00;99.90;;;;;;7369215;19;20015;-70
2023/01/22 04:44:49;;;;;;;11.27;8.65;;;1.00;99.90;;;;;;7369171;19;20361;-69
2023/01/22 04:47:15;;;;;;;11.70;8.55;;;1.00;99.90;;;;;;7369424;19;20568;-64
2023/01/22 04:49:42;;;;;;;9.45;8.10;;;1.00;99.90;;;;;;7369889;19;20019;-64
2023/01/22 04:52:11;;;;;;;11.38;7.90;;;1.00;99.90;;;;;;7372102;19;20371;-64
2023/01/22 04:54:37;;;;;;;12.55;9.07;;;1.00;99.90;;;;;;7368285;19;20014;-64
2023/01/22 04:57:04;;;;;;;11.63;8.70;;;1.00;99.90;;;;;;7370816;19;20125;-64
2023/01/22 04:59:32;;;;;;;11.02;8.45;;;1.00;99.90;;;;;;7369777;19;20022;-64
2023/01/22 05:01:59;;;;;;;13.57;9.02;;;1.00;99.90;;;;;;7369088;19;20481;-64
2023/01/22 05:04:25;;;;;;;10.32;9.05;;;1.00;99.90;;;;;;7368501;19;20022;-69
2023/01/22 05:06:52;;;;;;;11.25;8.43;;;1.00;99.90;;;;;;7367829;19;20018;-65
2023/01/22 05:09:18;;;;;;;11.30;8.52;;;1.00;99.90;;;;;;7368086;19;20018;-64
2023/01/22 05:11:57;;;;;;;12.63;8.88;;;1.00;99.90;;;;;;7366915;19;20548;-64
2023/01/22 05:14:25;;;;;;;10.43;7.70;;;1.00;99.90;;;;;;7369937;19;20481;-64
2023/01/22 05:16:51;;;;;;;11.48;9.07;;;1.00;99.90;;;;;;7367407;19;20045;-64
2023/01/22 05:19:17;;;;;;;11.68;9.43;;;1.00;99.90;;;;;;7359385;19;20030;-64
2023/01/22 05:21:44;;;;;;;13.50;9.18;;;1.00;99.90;;;;;;7366275;19;20018;-64
2023/01/22 05:24:15;;;;;;;12.15;9.65;;;1.00;99.90;;;;;;7365805;19;21341;-64
2023/01/22 05:26:44;;;;;;;11.68;9.13;;;0.90;99.90;;;;;;7359451;19;20022;-64
2023/01/22 05:29:18;;;;;;;14.40;9.10;;;0.90;99.90;;;;;;7363849;19;20019;-64
2023/01/22 05:31:57;;;;;;;12.57;9.35;;;0.90;99.90;;;;;;7360478;19;20033;-64
2023/01/22 05:34:29;;;;;;;10.85;8.77;;;0.90;99.90;;;;;;7357976;19;20030;-64
2023/01/22 05:36:56;;;;;;;13.80;10.02;;;0.90;99.90;;;;;;7360239;19;20018;-64
2023/01/22 05:39:24;;;;;;;10.07;8.27;;;0.90;99.90;;;;;;7358337;19;20030;-64
2023/01/22 05:41:53;;;;;;;13.30;9.35;;;0.90;99.90;;;;;;7358901;19;20022;-64
2023/01/22 05:44:19;;;;;;;10.65;9.40;;;0.90;99.90;;;;;;7360728;19;20030;-64
2023/01/22 05:46:50;;;;;;;12.10;9.65;;;0.90;99.90;;;;;;7359595;19;20037;-64
2023/01/22 05:49:32;;;;;;;10.20;9.10;;;0.90;99.90;;;;;;7356567;19;20531;-64
2023/01/22 05:51:59;;;;;;;10.65;8.52;;;0.80;99.90;;;;;;7356468;19;20023;-64
2023/01/22 05:54:25;;;;;;;13.95;9.40;;;0.80;99.90;;;;;;7361745;19;20525;-64
2023/01/22 05:56:55;;;;;;;10.80;9.13;;;0.80;99.90;;;;;;7360326;19;20108;-64
2023/01/22 05:59:23;;;;;;;13.80;9.10;;;0.80;99.90;;;;;;7356815;19;20047;-64
2023/01/22 06:01:58;;;;;;;12.95;8.55;;;0.80;99.90;;;;;;7359185;19;20041;-64
2023/01/22 06:04:24;;;;;;;11.52;9.05;;;0.80;99.90;;;;;;7362283;19;20095;-64
2023/01/22 06:07:00;;;;;;;12.55;9.68;;;0.80;99.90;;;;;;7368096;19;20015;-64
2023/01/22 06:09:28;;;;;;;14.35;10.00;;;0.80;99.90;;;;;;7369938;19;20018;-64
2023/01/22 06:11:55;;;;;;;10.48;8.45;;;0.80;99.90;;;;;;7365970;19;20029;-64
2023/01/22 06:14:21;;;;;;;11.65;8.98;;;0.80;99.90;;;;;;7368776;19;20018;-64
2023/01/22 06:16:48;;;;;;;11.45;9.43;;;0.80;99.90;;;;;;7363246;19;20010;-64
2023/01/22 06:19:23;;;;;;;11.98;9.73;;;0.80;99.90;;;;;;7369302;19;20015;-64
2023/01/22 06:21:53;;;;;;;11.80;8.60;;;0.80;99.90;;;;;;7364725;19;20482;-64
2023/01/22 06:24:25;;;;;;;12.57;9.75;;;0.80;99.90;;;;;;7366545;19;20019;-64
2023/01/22 06:26:52;;;;;;;12.05;9.55;;;0.80;99.90;;;;;;7364565;19;20018;-63
2023/01/22 06:29:19;;;;;;;14.55;9.30;;;0.80;99.90;;;;;;7360996;19;20476;-64
2023/01/22 06:31:47;;;;;;;10.75;9.43;;;0.80;99.90;;;;;;7362470;19;20022;-64
2023/01/22 06:34:17;;;;;;;13.18;8.85;;;0.80;99.90;;;;;;7368739;19;20043;-64
2023/01/22 06:36:43;;;;;;;11.32;8.80;;;0.80;99.90;;;;;;7364443;19;20018;-64
2023/01/22 06:39:10;;;;;;;12.35;8.90;;;0.80;99.90;;;;;;7364719;19;20018;-64
2023/01/22 06:41:42;;;;;;;11.25;8.75;;;0.80;99.90;;;;;;7361507;19;20029;-69
2023/01/22 06:44:11;;;;;;;10.80;8.88;;;0.70;99.90;;;;;;7366669;19;20027;-64
2023/01/22 06:46:42;;;;;;;11.05;8.70;;;0.70;99.90;;;;;;7365269;19;20372;-64
2023/01/22 06:49:16;;;;;;;10.02;8.00;;;0.80;99.90;;;;;;7365585;19;20508;-63
2023/01/22 06:51:42;;;;;;;13.45;8.90;;;0.80;99.90;;;;;;7360924;19;20906;-64
2023/01/22 06:54:12;;;;;;;9.88;8.65;;;0.70;99.90;;;;;;7365647;19;20537;-64
2023/01/22 06:56:38;;;;;;;20.90;15.85;;;0.70;99.90;;;;;;7365830;19;20018;-63
2023/01/22 06:59:06;;;;;;;26.20;18.40;;;0.70;99.90;;;;;;7363445;19;20022;-63
2023/01/22 07:01:32;;;;;;;17.90;12.90;;;0.80;99.90;;;;;;7362459;19;20014;-63
2023/01/22 07:03:59;;;;;;;14.52;10.68;;;0.80;99.90;;;;;;7366159;19;20026;-64
2023/01/22 07:06:25;;;;;;;15.43;11.40;;;0.80;99.90;;;;;;7365960;19;20018;-64
2023/01/22 07:08:52;;;;;;;13.10;8.77;;;0.80;99.90;;;;;;7363544;19;20102;-63
2023/01/22 07:11:19;;;;;;;14.10;10.18;;;0.80;99.90;;;;;;7363336;19;20022;-63
2023/01/22 07:13:45;;;;;;;14.65;10.82;;;0.80;99.90;;;;;;7364360;19;20019;-63
2023/01/22 07:16:11;;;;;;;13.45;9.85;;;0.80;99.90;;;;;;7361154;19;20018;-63
2023/01/22 07:18:38;;;;;;;17.73;11.63;;;0.70;99.90;;;;;;7363765;19;20022;-63
2023/01/22 07:21:05;;;;;;;14.30;10.57;;;0.70;99.90;;;;;;7362879;19;20041;-64
2023/01/22 07:23:31;;;;;;;12.05;10.02;;;0.80;99.90;;;;;;7368293;19;20018;-63
2023/01/22 07:25:58;;;;;;;13.48;9.68;;;0.60;99.90;;;;;;7363402;19;20041;-64
2023/01/22 07:28:24;;;;;;;13.18;10.40;;;0.60;99.90;;;;;;7367931;19;20026;-63
2023/01/22 07:30:51;;;;;;;22.05;16.08;;;0.60;99.90;;;;;;7365469;19;20832;-64
2023/01/22 07:33:17;;;;;;;13.25;10.07;;;0.60;99.90;;;;;;7364439;19;20420;-63
2023/01/22 07:35:51;;;;;;;26.15;17.48;;;0.60;99.90;;;;;;7365741;19;20071;-66
2023/01/22 07:38:17;;;;;;;24.00;16.08;;;0.60;99.90;;;;;;7363134;19;20019;-63
2023/01/22 07:40:45;;;;;;;12.60;9.90;;;0.60;99.90;;;;;;7363100;19;20018;-68
2023/01/22 07:43:13;;;;;;;15.80;12.25;;;0.60;99.90;;;;;;7363466;19;20353;-69
2023/01/22 07:45:40;;;;;;;20.20;13.98;;;0.70;99.90;;;;;;7365212;19;20472;-64
2023/01/22 07:48:09;;;;;;;13.75;12.02;;;0.70;99.90;;;;;;7362149;19;20029;-63
2023/01/22 07:50:38;;;;;;;18.58;13.43;;;0.70;99.90;;;;;;7365353;19;20027;-64
2023/01/22 07:53:06;;;;;;;12.70;11.00;;;0.70;99.90;;;;;;7360213;19;20580;-63
2023/01/22 07:55:33;;;;;;;14.00;10.02;;;0.70;99.90;;;;;;7365177;19;20397;-64
2023/01/22 07:58:03;;;;;;;14.63;10.25;;;0.70;99.90;;;;;;7360044;19;20018;-64
2023/01/22 08:00:30;;;;;;;13.75;11.38;;;0.70;99.90;;;;;;7363142;19;20365;-63
2023/01/22 08:02:56;;;;;;;16.95;10.80;;;0.70;99.90;;;;;;7360557;19;20018;-63
2023/01/22 08:05:22;;;;;;;42.42;25.25;;;0.70;99.90;;;;;;7362219;19;20022;-64
2023/01/22 08:07:49;;;;;;;17.42;13.20;;;0.70;99.90;;;;;;7361582;19;20446;-63
2023/01/22 08:10:15;;;;;;;20.08;14.60;;;0.70;99.90;;;;;;7361749;19;20344;-63
2023/01/22 08:12:42;;;;;;;16.05;11.35;;;0.70;99.90;;;;;;7365001;19;21258;-64
2023/01/22 08:15:10;;;;;;;15.73;11.95;;;0.70;99.90;;;;;;7359213;19;20477;-65
2023/01/22 08:17:41;;;;;;;;;;;0.80;99.90;;;;;;7365552;19;20548;-64
2023/01/22 08:20:10;;;;;;;23.48;17.95;;;0.80;99.90;;;;;;7363118;19;19953;-64
2023/01/22 08:22:36;;;;;;;18.13;13.88;;;0.80;99.90;;;;;;7361524;19;20022;-64
2023/01/22 08:25:04;;;;;;;12.13;9.80;;;0.90;99.90;;;;;;7357098;19;20711;-64
2023/01/22 08:27:36;;;;;;;15.48;10.88;;;0.80;99.90;;;;;;7359044;19;20564;-69
2023/01/22 08:30:04;;;;;;;21.80;13.38;;;0.80;99.90;;;;;;7359430;19;21383;-68
2023/01/22 08:32:30;;;;;;;14.00;10.60;;;0.90;99.90;;;;;;7363768;19;20476;-69
2023/01/22 08:34:56;;;;;;;13.50;11.07;;;0.90;99.90;;;;;;7361150;19;20437;-70
2023/01/22 08:37:23;;;;;;;12.98;9.98;;;0.90;99.90;;;;;;7361553;19;20015;-70
2023/01/22 08:39:51;;;;;;;15.23;10.70;;;0.90;99.90;;;;;;7361393;19;20370;-71
2023/01/22 08:42:19;;;;;;;13.15;10.80;;;0.90;99.90;;;;;;7360216;19;20025;-72
2023/01/22 08:44:45;;;;;;;21.50;14.90;;;0.90;99.90;;;;;;7359902;19;20021;-71
2023/01/22 08:47:16;;;;;;;13.88;11.35;;;0.90;99.90;;;;;;7363692;19;20065;-70
2023/01/22 08:49:42;;;;;;;14.10;10.32;;;0.90;99.90;;;;;;7367990;19;20022;-70
2023/01/22 08:52:09;;;;;;;16.17;11.25;;;0.90;99.90;;;;;;7358652;19;20093;-70
2023/01/22 08:54:35;;;;;;;11.48;10.20;;;1.00;99.90;;;;;;7365179;19;20023;-70
2023/01/22 08:57:02;;;;;;;15.68;9.65;;;1.00;99.90;;;;;;7358288;19;20018;-70
2023/01/22 08:59:29;;;;;;;16.83;14.20;;;1.00;99.90;;;;;;7361555;19;20035;-70
2023/01/22 09:01:58;;;;;;;12.45;10.13;;;1.00;99.90;;;;;;7356067;19;20490;-70
2023/01/22 09:04:24;;;;;;;14.23;11.50;;;1.00;99.90;;;;;;7363297;19;20026;-70
2023/01/22 09:06:51;;;;;;;24.13;15.32;;;1.00;99.90;;;;;;7359216;19;21507;-70
2023/01/22 09:09:18;;;;;;;12.15;10.55;;;1.10;99.90;;;;;;7365095;19;20616;-70
2023/01/22 09:11:47;;;;;;;17.55;14.10;;;1.10;99.90;;;;;;7358850;19;20022;-71
2023/01/22 09:14:17;;;;;;;16.63;12.13;;;1.30;99.90;;;;;;7363774;19;20475;-70
2023/01/22 09:16:43;;;;;;;13.48;10.82;;;1.30;99.90;;;;;;7359876;19;20029;-71
2023/01/22 09:19:11;;;;;;;13.02;11.05;;;1.30;99.90;;;;;;7361280;19;20014;-70
2023/01/22 09:21:38;;;;;;;13.23;9.95;;;1.30;99.90;;;;;;7360042;19;20018;-70
2023/01/22 09:24:07;;;;;;;13.90;9.90;;;1.30;99.90;;;;;;7359295;19;20317;-71
2023/01/22 09:26:35;;;;;;;15.93;11.02;;;1.30;99.90;;;;;;7359223;19;20950;-71
2023/01/22 09:29:04;;;;;;;19.92;16.08;;;1.30;99.90;;;;;;7362028;19;20446;-71
2023/01/22 09:31:35;;;;;;;12.40;10.75;;;1.40;99.90;;;;;;7365267;19;20670;-70
2023/01/22 09:34:02;;;;;;;15.73;12.25;;;1.50;99.90;;;;;;7359119;19;20015;-71
2023/01/22 09:36:29;;;;;;;22.02;18.35;;;1.50;99.90;;;;;;7359090;19;20557;-71
2023/01/22 09:38:59;;;;;;;13.38;10.60;;;1.60;99.90;;;;;;7356379;19;20023;-71
2023/01/22 09:41:37;;;;;;;20.80;15.65;;;1.60;99.90;;;;;;7360356;19;20022;-71
2023/01/22 09:44:31;;;;;;;18.98;12.98;;;1.60;99.90;;;;;;7359771;19;20014;-71
2023/01/22 09:47:05;;;;;;;14.68;11.77;;;1.60;99.90;;;;;;7357969;19;20488;-71
2023/01/22 09:49:42;;;;;;;22.42;15.35;;;1.60;99.90;;;;;;7362268;19;20041;-71
2023/01/22 09:52:10;;;;;;;16.42;14.13;;;1.60;99.90;;;;;;7361027;19;20374;-71
2023/01/22 09:54:41;;;;;;;11.63;10.40;;;1.50;99.90;;;;;;7364128;19;20481;-71
2023/01/22 09:57:14;;;;;;;11.98;9.82;;;1.50;99.90;;;;;;7358734;19;20655;-68
2023/01/22 09:59:49;;;;;;;;;;;1.50;99.90;;;;;;7357797;19;20121;-71
2023/01/22 10:02:27;;;;;;;19.98;15.82;;;1.50;99.90;;;;;;7358160;19;19930;-71
2023/01/22 10:05:13;;;;;;;14.63;12.20;;;1.50;99.90;;;;;;7355910;19;20477;-71
2023/01/22 10:08:05;;;;;;;12.27;11.02;;;1.60;99.90;;;;;;7359710;19;20127;-71
2023/01/22 10:10:52;;;;;;;13.65;12.25;;;1.70;99.90;;;;;;7357872;19;20022;-64
2023/01/22 10:13:39;;;;;;;13.38;11.90;;;1.70;99.90;;;;;;7354982;19;20646;-65
2023/01/22 10:16:26;;;;;;;19.00;15.70;;;1.90;99.90;;;;;;7355771;19;20018;-72
2023/01/22 10:19:31;;;;;;;13.70;12.38;;;2.00;99.90;;;;;;7360194;19;20014;-72
2023/01/22 10:22:01;;;;;;;15.73;12.13;;;2.20;99.90;;;;;;7358951;19;20389;-71
2023/01/22 10:24:29;;;;;;;12.88;11.00;;;2.40;99.90;;;;;;7351020;19;20480;-72
2023/01/22 10:27:13;;;;;;;12.30;10.30;;;2.40;99.90;;;;;;7356964;19;20022;-71
2023/01/22 10:30:19;;;;;;;26.08;22.23;;;2.50;99.90;;;;;;7358341;19;20398;-64
2023/01/22 10:32:57;;;;;;;27.63;21.55;;;2.60;99.90;;;;;;7356790;19;20018;-63
2023/01/22 10:35:24;;;;;;;22.17;18.58;;;2.70;99.90;;;;;;7352991;19;20022;-63
2023/01/22 10:37:55;;;;;;;30.20;21.58;;;2.90;99.90;;;;;;7357645;19;20022;-63
2023/01/22 10:40:39;;;;;;;21.60;16.98;;;3.00;99.90;;;;;;7354595;19;20026;-63
2023/01/22 10:43:12;;;;;;;11.43;8.95;;;3.00;99.90;;;;;;7196409;19;3048758;-64
2023/01/22 10:45:49;;;;;;;12.35;9.75;;;3.30;99.90;;;;;;7357877;19;20018;-64
2023/01/22 10:48:17;;;;;;;12.75;10.15;;;3.40;99.90;;;;;;7359050;19;20826;-63
2023/01/22 10:50:45;;;;;;;12.73;10.77;;;3.40;99.90;;;;;;7360569;19;20090;-64
2023/01/22 10:53:33;;;;;;;17.60;13.02;;;3.40;99.90;;;;;;7364276;19;20014;-63
2023/01/22 10:56:02;;;;;;;10.35;9.20;;;3.20;99.90;;;;;;7368898;19;20042;-63
2023/01/22 10:58:35;;;;;;;10.73;9.38;;;3.10;99.90;;;;;;7363172;19;20011;-63
2023/01/22 11:01:05;;;;;;;11.68;10.07;;;3.10;99.90;;;;;;7368958;19;20139;-62
2023/01/22 11:03:44;;;;;;;15.13;11.50;;;3.00;99.90;;;;;;7367751;19;20403;-64
2023/01/22 11:06:39;;;;;;;12.32;10.50;;;2.90;99.90;;;;;;7363235;19;20022;-63
2023/01/22 11:09:35;;;;;;;12.25;10.35;;;2.80;99.90;;;;;;7365558;19;20022;-63
2023/01/22 11:12:16;;;;;;;20.00;17.15;;;2.70;99.90;;;;;;7363892;19;20033;-63
2023/01/22 11:14:46;;;;;;;23.80;15.18;;;2.70;99.90;;;;;;7362151;19;20021;-69
2023/01/22 11:17:30;;;;;;;20.85;17.02;;;2.60;99.90;;;;;;7364287;19;20014;-63
2023/01/22 11:20:24;;;;;;;20.00;14.00;;;2.60;99.90;;;;;;7364211;19;20524;-63
2023/01/22 11:23:18;;;;;;;13.20;10.90;;;2.60;99.90;;;;;;7363982;19;20046;-63
2023/01/22 11:26:00;;;;;;;15.93;13.45;;;2.60;99.90;;;;;;7360837;19;20018;-63
2023/01/22 11:28:32;;;;;;;19.52;16.58;;;2.70;99.90;;;;;;7366209;19;20332;-63
2023/01/22 11:31:13;;;;;;;16.52;13.68;;;2.80;99.90;;;;;;7365463;19;20022;-62
2023/01/22 11:33:53;;;;;;;15.88;13.98;;;2.80;99.90;;;;;;7362213;19;20422;-63
2023/01/22 11:36:38;;;;;;;15.82;14.23;;;2.90;99.90;;;;;;7365614;19;20465;-63
2023/01/22 11:39:43;;;;;;;22.27;18.55;;;2.80;99.90;;;;;;7365916;19;20132;-63
2023/01/22 11:42:18;;;;;;;16.83;15.02;;;2.70;99.90;;;;;;7359474;19;20015;-62
2023/01/22 11:44:54;;;;;;;18.33;13.27;;;2.60;99.90;;;;;;7362978;19;20014;-65
2023/01/22 11:47:46;;;;;;;19.27;14.95;;;2.70;99.90;;;;;;7359116;19;20018;-62
2023/01/22 11:50:26;;;;;;;31.35;24.83;;;2.60;99.90;;;;;;7358984;19;20022;-63
2023/01/22 11:53:14;;;;;;;20.30;16.45;;;2.60;99.90;;;;;;7359631;19;20029;-63
2023/01/22 11:55:55;;;;;;;26.65;21.75;;;2.60;99.90;;;;;;7364921;19;20022;-63
2023/01/22 11:58:50;;;;;;;17.73;15.80;;;2.60;99.90;;;;;;7358734;19;20022;-63
2023/01/22 12:01:35;;;;;;;14.85;13.27;;;2.80;99.90;;;;;;7367220;19;20090;-63
2023/01/22 12:04:08;;;;;;;26.33;21.45;;;2.80;99.90;;;;;;7358167;19;20033;-63
2023/01/22 12:06:44;;;;;;;20.77;15.32;;;2.90;99.90;;;;;;7360120;19;20014;-62
2023/01/22 12:09:30;;;;;;;15.43;13.80;;;2.80;99.90;;;;;;7360372;19;20423;-63
2023/01/22 12:11:59;;;;;;;16.20;14.60;;;2.70;99.90;;;;;;7362564;19;20489;-63
2023/01/22 12:14:48;;;;;;;15.45;13.70;;;2.70;99.90;;;;;;7363046;19;20039;-63
2023/01/22 12:17:54;;;;;;;14.95;13.35;;;2.90;99.90;;;;;;7360148;19;20094;-63
2023/01/22 12:20:39;;;;;;;14.52;13.00;;;2.90;99.90;;;;;;7359502;19;20634;-63
2023/01/22 12:23:18;;;;;;;24.20;19.38;;;2.80;99.90;;;;;;7363135;19;20028;-71
2023/01/22 12:26:04;;;;;;;15.38;12.63;;;2.80;99.90;;;;;;7361372;19;20011;-63
2023/01/22 12:28:36;;;;;;;13.50;12.15;;;2.70;99.90;;;;;;7364825;19;20048;-71
2023/01/22 12:31:10;;;;;;;17.25;15.27;;;2.80;99.90;;;;;;7359243;19;20700;-62
2023/01/22 12:33:40;;;;;;;17.48;15.68;;;2.80;99.90;;;;;;7362637;19;20031;-63
2023/01/22 12:36:12;;;;;;;18.80;16.63;;;2.80;99.90;;;;;;7361330;19;20045;-63
2023/01/22 12:38:55;;;;;;;13.32;11.80;;;2.70;99.90;;;;;;7363805;19;20615;-63
2023/01/22 12:41:48;;;;;;;16.55;14.75;;;2.70;99.90;;;;;;7363025;19;20015;-63
2023/01/22 12:44:32;;;;;;;;;;;2.70;99.90;;;;;;7361765;19;20026;-63
2023/01/22 12:47:35;;;;;;;16.83;14.90;;;2.70;99.90;;;;;;7364668;19;19927;-63
2023/01/22 12:50:02;;;;;;;14.40;12.95;;;2.70;99.90;;;;;;7364444;19;20026;-70
2023/01/22 12:52:36;;;;;;;18.98;16.65;;;2.70;99.90;;;;;;7362057;19;20018;-71
2023/01/22 12:55:21;;;;;;;15.37;13.70;;;2.70;99.90;;;;;;7358681;19;20035;-70
2023/01/22 12:57:47;;;;;;;20.25;17.60;;;2.60;99.90;;;;;;7359115;19;20018;-63
2023/01/22 13:00:29;;;;;;;19.92;17.00;;;2.60;99.90;;;;;;7361059;19;20049;-70
2023/01/22 13:02:56;;;;;;;16.80;13.45;;;2.60;99.90;;;;;;7357885;19;20501;-65
2023/01/22 13:05:28;;;;;;;16.17;13.63;;;2.60;99.90;;;;;;7357142;19;21463;-62
2023/01/22 13:08:21;;;;;;;15.02;13.43;;;2.60;99.90;;;;;;7359787;19;20528;-61
2023/01/22 13:11:00;;;;;;;24.70;20.95;;;2.60;99.90;;;;;;7357944;19;20035;-67